This is the latest recevied weather packets stored in our database for station/object HI3R-13. If no packets are shown the sender has not sent any weather packets the latest 10 day(s).
| Time | Temp. | Humidity | Pressure | Rain* | Wind** | Luminosity | Snow |
|---|---|---|---|---|---|---|---|
| 1777851017 | 28.33° C | 55% | 985.6 hPa | 0 mm | - | - | - |
| 1777845617 | 30.56° C | 50% | 985 hPa | 0 mm | - | - | - |
| 1777845017 | 30.56° C | 50% | 985 hPa | 0 mm | - | - | - |
| 1777842017 | 32.22° C | 44% | 984.9 hPa | 0 mm | - | - | - |
| 1777840817 | 31.67° C | 44% | 984.9 hPa | 0 mm | - | - | - |
| 1777839617 | 31.67° C | 48% | 985 hPa | 0 mm | - | - | - |
| 1777839017 | 31.67° C | 48% | 985.1 hPa | 0 mm | - | - | - |
| 1777830016 | 31.67° C | 52% | 986.7 hPa | 0 mm | - | - | - |
| 1777828216 | 31.11° C | 55% | 987.1 hPa | 0 mm | - | - | - |
| 1777823416 | 30° C | 54% | 988 hPa | 0 mm | - | - | - |
| 1777822816 | 30° C | 54% | 988.1 hPa | 0 mm | - | - | - |
| 1777818616 | 29.44° C | 56% | 988.6 hPa | 0 mm | - | - | - |
| 1777816217 | 28.89° C | 57% | 988.9 hPa | 0 mm | - | - | - |
| 1777815018 | 28.33° C | 62% | 989 hPa | 0 mm | - | - | - |
| 1777806617 | 23.33° C | 86% | 988.1 hPa | 0 mm | - | - | - |
| 1777798817 | 23.33° C | 86% | 987.3 hPa | 0 mm | - | - | - |
| 1777792256 | 23.89° C | 83% | 987.1 hPa | 0 mm | - | - | - |
| 1777791616 | 23.89° C | 82% | 987.1 hPa | 0 mm | - | - | - |
| 1777786816 | 24.44° C | 80% | 988 hPa | 0 mm | - | - | - |
| 1777786236 | 24.44° C | 80% | 988 hPa | 0 mm | - | - | - |
| 1777785616 | 24.44° C | 79% | 988 hPa | 0 mm | - | - | - |
| 1777784416 | 24.44° C | 80% | 988 hPa | 0 mm | - | - | - |
| 1777780217 | 24.44° C | 79% | 988.5 hPa | 0 mm | - | - | - |
| 1777776017 | 25.56° C | 75% | 988.3 hPa | 0 mm | - | - | - |
| 1777775437 | 25.56° C | 75% | 988.3 hPa | 0 mm | - | - | - |
* Rain latest hour (hover to see other rain measurements)
** Current wind speed in m/s (hover to see current wind gust speed)